Nearby METAR Reports

 

KPIA - Peoria, Illinois, USA
Distance from station: SSW 11mi, 18km
Updated: 12/11/2018 6:54pm
Clear
Clear
 Wind from S
Wind: S 6 mph , 9 km/h
Temperature: 37°F , 3°C
Wind Chill: 32°F , 0°C
Dew Point: 30°F , -1°C
Humidity: 75%
Barometer: 30.00 inHg , 1015.9 hPa
Clouds: Clear
Visibility: 10 miles , 16 km
2018/12/12 00:54 KPIA 120054Z 18005KT 10SM CLR 03/M01 A3000 RMK AO2 SLP165 T00281011
KC75 - Lacon, Illinois, USA
Distance from station: NE 18mi, 30km
Updated: 12/11/2018 7:55pm
Clear
Clear
 Wind from SE
Wind: SE 7 mph , 11 km/h
Temperature: 37°F , 3°C
Wind Chill: 32°F , 0°C
Dew Point: 30°F , -1°C
Humidity: 75%
Barometer: 29.99 inHg , 1015.6 hPa
Clouds: Clear
Visibility: 10 miles , 16 km
2018/12/12 01:55 KC75 120155Z AUTO 13006KT 10SM CLR 03/M01 A2999 RMK AO2 T00251011
 
KGBG - Galesburg, Illinois, USA
Distance from station: W 43mi, 69km
Updated: 12/11/2018 7:55pm
Clear
Clear
 Wind from calm
Wind: Calm
Temperature: 39°F , 4°C
Dew Point: 30°F , -1°C
Humidity: 70%
Barometer: 29.95 inHg , 1014.2 hPa
Clouds: Clear
Visibility: 10 miles , 16 km
2018/12/12 01:55 KGBG 120155Z AUTO 00000KT 10SM CLR 04/M01 A2995 RMK AO2 T00361015
KBMI - Bloomington/Norm, Illinois, USA
Distance from station: ESE 44mi, 71km
Updated: 12/11/2018 7:56pm
Clear
Clear
 Wind from S
Wind: S 9 mph , 15 km/h
Temperature: 30°F , -1°C
Wind Chill: 22°F , -6°C
Dew Point: 28°F , -2°C
Humidity: 93%
Barometer: 30.02 inHg , 1016.6 hPa
Clouds: Clear
Visibility: 10 miles , 16 km
2018/12/12 01:56 KBMI 120156Z 17008KT 10SM CLR M01/M02 A3002 RMK AO2 SLP192 T10061017
 
KVYS - Peru, Illinois, USA
Distance from station: NNE 44mi, 71km
Updated: 12/11/2018 7:55pm
Clear
Clear
 Wind from SE
Wind: SE 7 mph , 11 km/h
Temperature: 36°F , 2°C
Wind Chill: 30°F , -1°C
Dew Point: 30°F , -1°C
Humidity: 81%
Barometer: 30.00 inHg , 1015.9 hPa
Clouds: Clear
Visibility: 10 miles , 16 km
2018/12/12 01:55 KVYS 120155Z AUTO 13006KT 10SM CLR 02/M01 A3000 RMK AO2 T00241008
KAAA - Lincoln, Illinois, USA
Distance from station: SSE 48mi, 77km
Updated: 12/11/2018 7:55pm
Clear
Clear
 Wind from S
Wind: S 8 mph , 13 km/h
Temperature: 39°F , 4°C
Wind Chill: 33°F , 1°C
Dew Point: 30°F , -1°C
Humidity: 70%
Barometer: 30.01 inHg , 1016.3 hPa
Clouds: Clear
Visibility: 10 miles , 16 km
2018/12/12 01:55 KAAA 120155Z AUTO 18007KT 10SM CLR 04/M01 A3001 RMK AO2 T00371006
 
KPNT - Pontiac, Illinois, USA
Distance from station: E 53mi, 85km
Updated: 12/11/2018 7:55pm
Clear
Clear
 Wind from SSE
Wind: SSE 5 mph , 7 km/h
Temperature: 32°F , 0°C
Wind Chill: 27°F , -3°C
Dew Point: 32°F , 0°C
Humidity: 100%
Barometer: 30.02 inHg , 1016.6 hPa
Clouds: Clear
Visibility: 10 miles , 16 km
2018/12/12 01:55 KPNT 120155Z AUTO 15004KT 10SM CLR 00/00 A3002 RMK AO2 T00010000
KMQB - Macomb Muni, Illinois, USA
Distance from station: WSW 58mi, 93km
Updated: 12/11/2018 7:55pm
Clear
Clear
 Wind from S
Wind: S 8 mph , 13 km/h
Temperature: 36°F , 2°C
Wind Chill: 30°F , -1°C
Dew Point: 30°F , -1°C
Humidity: 81%
Barometer: 29.97 inHg , 1014.9 hPa
Clouds: Clear
Visibility: 10 miles , 16 km
2018/12/12 01:55 KMQB 120155Z AUTO 17007KT 10SM CLR 02/M01 A2997 RMK AO2 T00201013
 
KMLI - Moline/Quad City, Illinois, USA
Distance from station: NW 64mi, 103km
Updated: 12/11/2018 7:52pm
Clear
Clear
 Wind from ESE
Wind: ESE 6 mph , 9 km/h
Temperature: 36°F , 2°C
Wind Chill: 31°F , -1°C
Dew Point: 28°F , -2°C
Humidity: 75%
Barometer: 29.93 inHg , 1013.5 hPa
Clouds: Clear
Visibility: 10 miles , 16 km
2018/12/12 01:52 KMLI 120152Z 11005KT 10SM CLR 02/M02 A2993 RMK AO2 SLP142 T00171017
KSQI - Sterling Rockfal, Illinois, USA
Distance from station: N 64mi, 103km
Updated: 12/11/2018 7:56pm
Clear
Clear
 Wind from E
Wind: E 8 mph , 13 km/h
Temperature: 30°F , -1°C
Wind Chill: 22°F , -6°C
Dew Point: 28°F , -2°C
Humidity: 93%
Barometer: 29.98 inHg , 1015.2 hPa
Clouds: Clear
Visibility: 10 miles , 16 km
2018/12/12 01:56 KSQI 120156Z AUTO 10007KT 10SM CLR M01/M02 A2998 RMK AO2 SLP176 T10061017 FZRANO
 
KSPI - Springfield, Illinois, USA
Distance from station: S 67mi, 108km
Updated: 12/11/2018 7:52pm
Clear
Clear
 Wind from S
Wind: S 12 mph , 19 km/h
Temperature: 39°F , 4°C
Wind Chill: 32°F , 0°C
Dew Point: 28°F , -2°C
Humidity: 65%
Barometer: 30.00 inHg , 1015.9 hPa
Clouds: Clear
Visibility: 10 miles , 16 km
2018/12/12 01:52 KSPI 120152Z 18010KT 10SM CLR 04/M02 A3000 RMK AO2 SLP165 T00441022
KDVN - Davenport/Quad C, Iowa, USA
Distance from station: NW 74mi, 120km
Updated: 12/11/2018 7:52pm
Clear
Clear
 Wind from SE
Wind: SE 9 mph , 15 km/h
Temperature: 36°F , 2°C
Wind Chill: 29°F , -2°C
Dew Point: 28°F , -2°C
Humidity: 75%
Barometer: 29.95 inHg , 1014.2 hPa
Clouds: Clear
Visibility: 10 miles , 16 km
2018/12/12 01:52 KDVN 120152Z AUTO 13008KT 10SM CLR 02/M02 A2995 RMK AO2 SLP146 T00171022